createdAt,value
2018-09-01T00:00:38.042Z,14.10
2018-09-01T00:03:06.340Z,14.10
2018-09-01T00:05:34.372Z,14.10
2018-09-01T00:08:02.558Z,14.10
2018-09-01T00:10:30.596Z,14.00
2018-09-01T00:12:58.638Z,14.00
2018-09-01T00:15:26.716Z,13.90
2018-09-01T00:17:54.787Z,13.90
2018-09-01T00:20:22.827Z,13.80
2018-09-01T00:22:50.873Z,13.80
2018-09-01T00:25:19.000Z,13.80
2018-09-01T00:27:47.036Z,13.70
2018-09-01T00:30:15.102Z,13.80
2018-09-01T00:32:43.163Z,13.70
2018-09-01T00:35:11.204Z,13.70
2018-09-01T00:37:44.760Z,13.70
2018-09-01T00:40:12.824Z,13.60
2018-09-01T00:42:40.900Z,13.60
2018-09-01T00:45:09.010Z,13.60
2018-09-01T00:47:37.073Z,13.50
2018-09-01T00:50:05.304Z,13.50
2018-09-01T00:52:33.392Z,13.50
2018-09-01T00:55:01.435Z,13.50
2018-09-01T00:57:29.505Z,13.50
2018-09-01T00:59:57.555Z,13.60
2018-09-01T01:02:25.644Z,13.60
2018-09-01T01:04:53.704Z,13.70
2018-09-01T01:07:21.760Z,13.70
2018-09-01T01:09:49.885Z,13.60
2018-09-01T01:12:17.944Z,13.60
2018-09-01T01:14:45.988Z,13.60
2018-09-01T01:17:14.047Z,13.60
2018-09-01T01:19:42.108Z,13.60
2018-09-01T01:22:10.155Z,13.60
2018-09-01T01:24:38.368Z,13.50
2018-09-01T01:27:06.481Z,13.50
2018-09-01T01:29:34.520Z,13.40
2018-09-01T01:32:02.592Z,13.30
2018-09-01T01:34:30.640Z,13.30
2018-09-01T01:36:58.701Z,13.30
2018-09-01T01:39:26.779Z,13.20
2018-09-01T01:41:54.841Z,13.20
2018-09-01T01:44:22.888Z,13.30
2018-09-01T01:46:50.915Z,13.20
2018-09-01T01:49:19.017Z,13.30
2018-09-01T01:51:47.096Z,13.20
2018-09-01T01:54:15.158Z,13.20
2018-09-01T01:56:43.213Z,13.20
2018-09-01T01:59:11.263Z,13.10
2018-09-01T02:01:39.304Z,13.00
2018-09-01T02:04:07.396Z,13.00
2018-09-01T02:06:35.444Z,12.90
2018-09-01T02:09:03.736Z,12.90
2018-09-01T02:11:31.793Z,12.80
2018-09-01T02:13:59.846Z,12.80
2018-09-01T02:16:27.941Z,12.80
2018-09-01T02:18:55.933Z,12.80
2018-09-01T02:21:24.011Z,12.80
2018-09-01T02:23:52.110Z,12.80
2018-09-01T02:26:20.148Z,12.80
2018-09-01T02:28:48.216Z,12.80
2018-09-01T02:31:16.260Z,12.70
2018-09-01T02:33:44.344Z,12.70
2018-09-01T02:36:12.403Z,12.70
2018-09-01T02:38:40.476Z,12.70
2018-09-01T02:41:08.522Z,12.70
2018-09-01T02:43:36.560Z,12.70
2018-09-01T02:46:04.614Z,12.70
2018-09-01T02:48:32.692Z,12.70
2018-09-01T02:51:00.739Z,12.70
2018-09-01T02:53:28.759Z,12.70
2018-09-01T02:55:57.082Z,12.70
2018-09-01T02:58:25.120Z,12.60
2018-09-01T03:00:58.543Z,12.60
2018-09-01T03:03:26.599Z,12.60
2018-09-01T03:05:54.711Z,12.60
2018-09-01T03:08:22.756Z,12.60
2018-09-01T03:10:50.810Z,12.60
2018-09-01T03:13:18.844Z,12.60
2018-09-01T03:15:46.908Z,12.60
2018-09-01T03:18:14.970Z,12.60
2018-09-01T03:20:43.020Z,12.60
2018-09-01T03:23:11.059Z,12.60
2018-09-01T03:25:39.148Z,12.60
2018-09-01T03:28:07.183Z,12.60
2018-09-01T03:30:35.245Z,12.60
2018-09-01T03:33:03.313Z,12.50
2018-09-01T03:35:31.358Z,12.50
2018-09-01T03:37:59.397Z,12.50
2018-09-01T03:40:27.464Z,12.50
2018-09-01T03:42:55.620Z,12.40
2018-09-01T03:45:23.677Z,12.40
2018-09-01T03:47:52.192Z,12.40
2018-09-01T03:50:20.297Z,12.40
2018-09-01T03:52:48.349Z,12.40
2018-09-01T03:55:16.611Z,12.30
2018-09-01T03:57:44.652Z,12.30
2018-09-01T04:00:12.711Z,12.30
2018-09-01T04:02:40.724Z,12.30
2018-09-01T04:05:09.024Z,12.30
2018-09-01T04:07:37.126Z,12.30
2018-09-01T04:10:05.168Z,12.30
2018-09-01T04:12:33.220Z,12.20
2018-09-01T04:15:01.303Z,12.20
2018-09-01T04:17:29.384Z,12.20
2018-09-01T04:19:57.441Z,12.20
2018-09-01T04:22:25.489Z,12.20
2018-09-01T04:24:53.552Z,12.20
2018-09-01T04:27:21.607Z,12.20
2018-09-01T04:29:49.687Z,12.20
2018-09-01T04:32:17.745Z,12.20
2018-09-01T04:34:45.776Z,12.20
2018-09-01T04:37:13.835Z,12.20
2018-09-01T04:39:41.913Z,12.20
2018-09-01T04:42:09.981Z,12.20
2018-09-01T04:44:38.053Z,12.20
2018-09-01T04:47:06.254Z,12.20
2018-09-01T04:49:34.255Z,12.20
2018-09-01T04:52:02.329Z,12.20
2018-09-01T04:54:30.372Z,12.20
2018-09-01T04:56:58.423Z,12.30
2018-09-01T04:59:26.500Z,12.40
2018-09-01T05:01:54.544Z,12.50
2018-09-01T05:04:22.672Z,12.50
2018-09-01T05:06:50.735Z,12.60
2018-09-01T05:09:18.762Z,12.60
2018-09-01T05:11:46.804Z,12.70
2018-09-01T05:14:14.867Z,12.80
2018-09-01T05:16:42.943Z,12.90
2018-09-01T05:19:11.018Z,13.00
2018-09-01T05:21:39.040Z,13.00
2018-09-01T05:24:07.097Z,13.10
2018-09-01T05:26:35.131Z,13.10
2018-09-01T05:29:03.171Z,13.20
2018-09-01T05:31:31.223Z,13.30
2018-09-01T05:33:59.271Z,13.40
2018-09-01T05:36:27.332Z,13.40
2018-09-01T05:38:55.392Z,13.40
2018-09-01T05:41:23.451Z,13.50
2018-09-01T05:43:51.477Z,13.50
2018-09-01T05:46:19.510Z,13.50
2018-09-01T05:48:47.547Z,13.40
2018-09-01T05:51:15.616Z,13.50
2018-09-01T05:53:43.667Z,13.40
2018-09-01T05:56:11.711Z,13.40
2018-09-01T05:58:39.744Z,13.40
2018-09-01T06:01:07.773Z,13.50
2018-09-01T06:03:35.816Z,13.50
2018-09-01T06:06:04.479Z,13.60
2018-09-01T06:08:32.481Z,13.60
2018-09-01T06:11:00.526Z,13.70
2018-09-01T06:13:28.568Z,13.80
2018-09-01T06:15:56.672Z,13.90
2018-09-01T06:18:24.770Z,14.00
2018-09-01T06:20:52.884Z,14.00
2018-09-01T06:23:21.044Z,14.10
2018-09-01T06:25:49.086Z,14.20
2018-09-01T06:29:21.628Z,14.30
2018-09-01T06:31:54.397Z,14.30
2018-09-01T06:34:22.583Z,14.40
2018-09-01T06:36:50.630Z,14.50
2018-09-01T06:39:18.699Z,14.60
2018-09-01T06:41:46.768Z,14.80
2018-09-01T06:44:14.830Z,14.90
2018-09-01T06:46:42.863Z,14.90
2018-09-01T06:49:10.940Z,15.00
2018-09-01T06:51:39.075Z,15.00
2018-09-01T06:54:07.082Z,15.00
2018-09-01T06:56:35.160Z,14.90
2018-09-01T06:59:03.227Z,15.00
2018-09-01T07:01:31.294Z,15.00
2018-09-01T07:03:59.328Z,15.00
2018-09-01T07:06:27.424Z,15.10
2018-09-01T07:08:55.499Z,15.10
2018-09-01T07:11:23.531Z,15.20
2018-09-01T07:13:51.589Z,15.30
2018-09-01T07:16:19.620Z,15.30
2018-09-01T07:18:47.688Z,15.40
2018-09-01T07:21:15.720Z,15.70
2018-09-01T07:23:43.820Z,15.80
2018-09-01T07:26:11.921Z,15.80
2018-09-01T07:28:39.981Z,15.90
2018-09-01T07:31:08.303Z,16.10
2018-09-01T07:33:36.113Z,16.10
2018-09-01T07:36:04.164Z,16.00
2018-09-01T07:38:32.223Z,15.90
2018-09-01T07:41:00.288Z,15.80
2018-09-01T07:43:28.336Z,16.10
2018-09-01T07:45:56.408Z,16.30
2018-09-01T07:48:24.460Z,16.50
2018-09-01T07:50:52.517Z,16.60
2018-09-01T07:53:20.552Z,16.70
2018-09-01T07:55:48.591Z,16.70
2018-09-01T07:58:16.624Z,17.00
2018-09-01T08:00:44.667Z,17.10
2018-09-01T08:03:12.728Z,17.00
2018-09-01T08:05:40.799Z,17.10
2018-09-01T08:08:08.878Z,17.10
2018-09-01T08:10:36.947Z,17.10
2018-09-01T08:13:05.322Z,17.00
2018-09-01T08:15:33.373Z,17.00
2018-09-01T08:18:01.454Z,17.20
2018-09-01T08:20:29.547Z,17.30
2018-09-01T08:22:57.595Z,17.30
2018-09-01T08:25:25.652Z,17.20
2018-09-01T08:27:53.714Z,17.30
2018-09-01T08:30:21.897Z,17.40
2018-09-01T08:32:50.372Z,17.40
2018-09-01T08:35:18.447Z,17.40
2018-09-01T08:37:46.496Z,17.30
2018-09-01T08:40:14.608Z,17.40
2018-09-01T08:42:42.584Z,17.50
2018-09-01T08:45:10.635Z,17.60
2018-09-01T08:47:38.656Z,17.70
2018-09-01T08:50:06.856Z,17.90
2018-09-01T08:52:34.896Z,18.00
2018-09-01T08:55:02.964Z,18.10
2018-09-01T08:57:30.992Z,18.10
2018-09-01T08:59:59.062Z,18.10
2018-09-01T09:02:27.088Z,18.10
2018-09-01T09:04:55.411Z,18.20
2018-09-01T09:07:23.456Z,18.20
2018-09-01T09:09:51.499Z,18.50
2018-09-01T09:12:19.587Z,19.00
2018-09-01T09:14:47.621Z,19.20
2018-09-01T09:17:15.668Z,19.50
2018-09-01T09:19:43.717Z,19.50
2018-09-01T09:22:11.972Z,19.70
2018-09-01T09:24:40.015Z,19.70
2018-09-01T09:27:08.068Z,19.90
2018-09-01T09:29:36.115Z,19.60
2018-09-01T09:32:04.176Z,19.50
2018-09-01T09:34:32.234Z,19.60
2018-09-01T09:37:00.245Z,19.40
2018-09-01T09:39:28.288Z,19.60
2018-09-01T09:41:56.371Z,19.80
2018-09-01T09:44:24.363Z,19.90
2018-09-01T09:46:52.396Z,20.10
2018-09-01T09:49:20.456Z,20.20
2018-09-01T09:51:48.587Z,20.20
2018-09-01T09:54:16.631Z,19.70
2018-09-01T09:56:44.692Z,19.40
2018-09-01T09:59:12.727Z,19.20
2018-09-01T10:01:41.628Z,19.20
2018-09-01T10:04:10.401Z,19.20
2018-09-01T10:06:38.788Z,19.40
2018-09-01T10:09:12.190Z,19.60
2018-09-01T10:11:40.972Z,19.80
2018-09-01T10:14:09.231Z,20.00
2018-09-01T10:16:37.286Z,20.10
2018-09-01T10:19:05.315Z,20.10
2018-09-01T10:21:33.401Z,20.00
2018-09-01T10:24:01.452Z,20.10
2018-09-01T10:26:30.175Z,20.00
2018-09-01T10:28:58.224Z,20.00
2018-09-01T10:31:26.298Z,20.00
2018-09-01T10:33:54.735Z,20.00
2018-09-01T10:36:22.879Z,20.00
2018-09-01T10:38:50.915Z,19.90
2018-09-01T10:41:18.976Z,20.10
2018-09-01T10:43:47.034Z,20.40
2018-09-01T10:46:15.058Z,20.50
2018-09-01T10:48:43.670Z,20.50
2018-09-01T10:51:11.695Z,20.70
2018-09-01T10:53:39.740Z,20.60
2018-09-01T10:56:07.810Z,20.70
2018-09-01T10:58:35.840Z,20.60
2018-09-01T11:01:03.887Z,20.40
2018-09-01T11:03:31.943Z,20.30
2018-09-01T11:05:59.964Z,20.20
2018-09-01T11:08:28.024Z,20.40
2018-09-01T11:10:56.060Z,20.60
2018-09-01T11:13:24.119Z,20.60
2018-09-01T11:15:52.165Z,20.70
2018-09-01T11:18:20.213Z,20.80
2018-09-01T11:20:48.331Z,20.80
2018-09-01T11:23:16.333Z,20.90
2018-09-01T11:25:44.387Z,20.90
2018-09-01T11:28:12.792Z,21.00
2018-09-01T11:30:40.828Z,20.90
2018-09-01T11:33:08.857Z,20.90
2018-09-01T11:35:36.884Z,20.70
2018-09-01T11:38:04.932Z,20.90
2018-09-01T11:40:33.022Z,20.90
2018-09-01T11:43:01.218Z,21.00
2018-09-01T11:45:29.132Z,21.10
2018-09-01T11:47:57.169Z,21.00
2018-09-01T11:50:25.215Z,21.10
2018-09-01T11:52:53.272Z,21.10
2018-09-01T11:55:21.296Z,21.00
2018-09-01T11:57:49.342Z,21.10
2018-09-01T12:00:17.400Z,21.30
2018-09-01T12:02:45.441Z,21.50
2018-09-01T12:05:13.507Z,21.50
2018-09-01T12:07:41.589Z,21.30
2018-09-01T12:10:09.924Z,21.10
2018-09-01T12:12:38.366Z,21.00
2018-09-01T12:15:06.436Z,21.10
2018-09-01T12:17:34.497Z,21.00
2018-09-01T12:20:02.578Z,21.10
2018-09-01T12:22:30.624Z,21.30
2018-09-01T12:24:58.689Z,21.40
2018-09-01T12:27:26.732Z,21.30
2018-09-01T12:29:54.781Z,21.40
2018-09-01T12:32:22.812Z,21.40
2018-09-01T12:34:50.888Z,21.50
2018-09-01T12:37:18.936Z,21.50
2018-09-01T12:39:47.005Z,21.60
2018-09-01T12:42:15.062Z,21.50
2018-09-01T12:44:43.112Z,21.50
2018-09-01T12:47:11.156Z,21.70
2018-09-01T12:49:39.188Z,21.80
2018-09-01T12:52:07.249Z,21.70
2018-09-01T12:54:35.304Z,21.50
2018-09-01T12:57:03.356Z,21.60
2018-09-01T12:59:31.393Z,21.50
2018-09-01T13:01:59.716Z,21.50
2018-09-01T13:04:27.756Z,21.50
2018-09-01T13:06:55.819Z,21.60
2018-09-01T13:09:23.919Z,21.60
2018-09-01T13:11:51.958Z,21.40
2018-09-01T13:14:19.997Z,21.40
2018-09-01T13:16:48.053Z,21.50
2018-09-01T13:19:16.143Z,21.50
2018-09-01T13:21:44.168Z,21.60
2018-09-01T13:24:12.224Z,21.50
2018-09-01T13:26:40.271Z,21.50
2018-09-01T13:29:08.300Z,21.50
2018-09-01T13:31:36.360Z,21.50
2018-09-01T13:34:04.398Z,21.50
2018-09-01T13:36:32.435Z,21.60
2018-09-01T13:39:00.515Z,21.80
2018-09-01T13:41:28.524Z,21.90
2018-09-01T13:43:56.580Z,21.90
2018-09-01T13:46:24.632Z,22.00
2018-09-01T13:48:52.668Z,22.00
2018-09-01T13:51:20.703Z,22.10
2018-09-01T13:53:48.815Z,22.00
2018-09-01T13:56:16.881Z,21.70
2018-09-01T13:58:44.940Z,21.70
2018-09-01T14:01:13.021Z,21.80
2018-09-01T14:03:41.064Z,22.10
2018-09-01T14:06:09.098Z,22.00
2018-09-01T14:08:37.143Z,21.90
2018-09-01T14:11:05.225Z,21.80
2018-09-01T14:13:33.281Z,21.80
2018-09-01T14:16:01.306Z,21.80
2018-09-01T14:18:29.369Z,21.90
2018-09-01T14:20:57.376Z,21.90
2018-09-01T14:23:25.419Z,21.90
2018-09-01T14:25:53.456Z,21.90
2018-09-01T14:28:21.587Z,21.60
2018-09-01T14:30:49.616Z,21.60
2018-09-01T14:33:17.660Z,21.60
2018-09-01T14:35:45.704Z,21.70
2018-09-01T14:38:13.756Z,21.80
2018-09-01T14:40:41.824Z,21.70
2018-09-01T14:43:09.895Z,21.60
2018-09-01T14:45:37.951Z,21.80
2018-09-01T14:48:06.028Z,21.90
2018-09-01T14:50:34.093Z,21.90
2018-09-01T14:53:02.154Z,21.90
2018-09-01T14:55:30.208Z,21.90
2018-09-01T14:57:58.228Z,21.70
2018-09-01T15:00:26.257Z,21.60
2018-09-01T15:02:54.296Z,21.60
2018-09-01T15:05:22.395Z,21.70
2018-09-01T15:07:50.375Z,21.70
2018-09-01T15:10:18.565Z,21.70
2018-09-01T15:12:46.600Z,21.90
2018-09-01T15:15:14.761Z,22.20
2018-09-01T15:17:42.801Z,22.40
2018-09-01T15:20:10.832Z,22.70
2018-09-01T15:22:38.975Z,22.90
2018-09-01T15:25:07.052Z,22.90
2018-09-01T15:27:37.204Z,23.00
2018-09-01T15:30:05.497Z,22.70
2018-09-01T15:32:33.555Z,22.50
2018-09-01T15:35:01.596Z,22.20
2018-09-01T15:37:29.657Z,22.00
2018-09-01T15:39:58.147Z,22.00
2018-09-01T15:42:26.188Z,22.80
2018-09-01T15:44:54.267Z,23.90
2018-09-01T15:47:22.331Z,24.40
2018-09-01T15:49:50.373Z,23.90
2018-09-01T15:52:18.424Z,23.20
2018-09-01T15:54:46.463Z,22.70
2018-09-01T15:57:14.512Z,22.40
2018-09-01T15:59:42.585Z,22.00
2018-09-01T16:02:10.653Z,21.70
2018-09-01T16:04:38.681Z,21.60
2018-09-01T16:07:06.729Z,21.40
2018-09-01T16:09:34.789Z,21.30
2018-09-01T16:12:02.828Z,21.30
2018-09-01T16:14:30.943Z,21.20
2018-09-01T16:16:58.987Z,21.10
2018-09-01T16:19:27.027Z,21.10
2018-09-01T16:21:55.100Z,21.00
2018-09-01T16:24:23.214Z,20.90
2018-09-01T16:26:51.257Z,21.00
2018-09-01T16:29:19.340Z,21.10
2018-09-01T16:31:47.397Z,21.30
2018-09-01T16:34:15.483Z,22.00
2018-09-01T16:36:43.512Z,22.80
2018-09-01T16:39:11.578Z,23.60
2018-09-01T16:41:39.636Z,24.00
2018-09-01T16:44:07.681Z,24.40
2018-09-01T16:46:35.703Z,24.60
2018-09-01T16:49:03.755Z,24.40
2018-09-01T16:51:31.818Z,24.20
2018-09-01T16:53:59.949Z,24.30
2018-09-01T16:56:27.978Z,24.30
2018-09-01T16:58:56.038Z,24.10
2018-09-01T17:01:24.100Z,23.70
2018-09-01T17:03:52.115Z,23.20
2018-09-01T17:06:20.187Z,23.00
2018-09-01T17:08:48.401Z,22.90
2018-09-01T17:11:16.473Z,23.00
2018-09-01T17:13:44.658Z,22.80
2018-09-01T17:16:12.740Z,22.80
2018-09-01T17:18:40.833Z,22.80
2018-09-01T17:21:09.067Z,22.70
2018-09-01T17:23:37.138Z,22.50
2018-09-01T17:26:05.453Z,22.70
2018-09-01T17:28:33.486Z,22.70
2018-09-01T17:31:01.548Z,22.70
2018-09-01T17:33:29.589Z,22.40
2018-09-01T17:35:57.644Z,22.30
2018-09-01T17:38:25.660Z,22.10
2018-09-01T17:40:53.745Z,22.00
2018-09-01T17:43:21.824Z,21.90
2018-09-01T17:45:50.167Z,21.60
2018-09-01T17:48:18.483Z,21.40
2018-09-01T17:50:46.492Z,21.40
2018-09-01T17:53:14.521Z,21.20
2018-09-01T17:55:42.592Z,21.10
2018-09-01T17:58:10.644Z,21.10
2018-09-01T18:00:38.693Z,21.00
2018-09-01T18:03:07.323Z,20.80
2018-09-01T18:05:35.361Z,20.60
2018-09-01T18:08:03.562Z,20.50
2018-09-01T18:10:31.636Z,20.30
2018-09-01T18:12:59.660Z,20.10
2018-09-01T18:15:27.719Z,20.00
2018-09-01T18:17:55.773Z,20.00
2018-09-01T18:20:23.848Z,19.80
2018-09-01T18:22:51.975Z,19.60
2018-09-01T18:25:19.936Z,19.50
2018-09-01T18:27:47.966Z,19.40
2018-09-01T18:30:16.036Z,19.40
2018-09-01T18:32:44.086Z,19.30
2018-09-01T18:35:12.110Z,19.30
2018-09-01T18:37:40.138Z,19.20
2018-09-01T18:40:08.173Z,19.10
2018-09-01T18:42:36.201Z,19.00
2018-09-01T18:45:04.528Z,18.90
2018-09-01T18:47:32.722Z,18.90
2018-09-01T18:50:00.665Z,18.80
2018-09-01T18:52:28.719Z,18.60
2018-09-01T18:54:57.588Z,18.60
2018-09-01T18:57:25.664Z,18.50
2018-09-01T18:59:53.669Z,18.40
2018-09-01T19:02:21.717Z,18.30
2018-09-01T19:04:49.795Z,18.30
2018-09-01T19:07:17.772Z,18.30
2018-09-01T19:09:45.844Z,18.20
2018-09-01T19:12:13.881Z,18.10
2018-09-01T19:14:41.922Z,18.00
2018-09-01T19:17:09.967Z,18.00
2018-09-01T19:19:38.004Z,17.90
2018-09-01T19:22:06.036Z,17.90
2018-09-01T19:24:34.151Z,17.80
2018-09-01T19:27:02.245Z,17.90
2018-09-01T19:29:30.260Z,17.90
2018-09-01T19:31:58.318Z,17.90
2018-09-01T19:34:26.340Z,17.90
2018-09-01T19:36:54.384Z,17.90
2018-09-01T19:39:22.428Z,17.80
2018-09-01T19:41:50.469Z,17.80
2018-09-01T19:44:18.495Z,17.80
2018-09-01T19:46:46.556Z,17.70
2018-09-01T19:49:14.594Z,17.70
2018-09-01T19:51:42.608Z,17.60
2018-09-01T19:54:10.692Z,17.60
2018-09-01T19:56:38.748Z,17.60
2018-09-01T19:59:06.787Z,17.60
2018-09-01T20:01:34.849Z,17.60
2018-09-01T20:04:02.908Z,17.60
2018-09-01T20:06:31.001Z,17.60
2018-09-01T20:08:59.068Z,17.60
2018-09-01T20:11:27.122Z,17.60
2018-09-01T20:13:55.163Z,17.60
2018-09-01T20:16:23.181Z,17.60
2018-09-01T20:18:51.284Z,17.50
2018-09-01T20:21:19.329Z,17.40
2018-09-01T20:23:47.356Z,17.40
2018-09-01T20:26:15.447Z,17.50
2018-09-01T20:28:43.496Z,17.40
2018-09-01T20:31:11.604Z,17.40
2018-09-01T20:33:39.644Z,17.30
2018-09-01T20:36:14.799Z,17.30
2018-09-01T20:38:43.296Z,17.20
2018-09-01T20:41:11.352Z,17.30
2018-09-01T20:43:39.401Z,17.30
2018-09-01T20:46:07.860Z,17.20
2018-09-01T20:48:35.936Z,17.20
2018-09-01T20:51:04.004Z,17.20
2018-09-01T20:53:32.044Z,17.20
2018-09-01T20:56:00.129Z,17.10
2018-09-01T20:58:28.220Z,17.00
2018-09-01T21:00:56.286Z,16.90
2018-09-01T21:03:24.358Z,16.80
2018-09-01T21:05:52.556Z,16.90
2018-09-01T21:08:20.880Z,16.80
2018-09-01T21:10:48.952Z,16.70
2018-09-01T21:13:17.084Z,16.70
2018-09-01T21:15:45.129Z,16.70
2018-09-01T21:18:13.163Z,16.60
2018-09-01T21:20:42.325Z,16.60
2018-09-01T21:23:10.422Z,16.50
2018-09-01T21:25:38.480Z,16.60
2018-09-01T21:28:06.518Z,16.50
2018-09-01T21:30:34.603Z,16.40
2018-09-01T21:33:02.643Z,16.30
2018-09-01T21:35:30.709Z,16.20
2018-09-01T21:37:58.757Z,16.30
2018-09-01T21:40:26.811Z,16.30
2018-09-01T21:42:54.884Z,16.30
2018-09-01T21:45:22.916Z,16.20
2018-09-01T21:47:51.013Z,16.10
2018-09-01T21:50:19.103Z,16.10
2018-09-01T21:52:47.166Z,16.00
2018-09-01T21:55:15.397Z,16.00
2018-09-01T21:57:43.451Z,15.90
2018-09-01T22:00:11.526Z,15.80
2018-09-01T22:02:39.584Z,15.80
2018-09-01T22:05:13.128Z,15.80
2018-09-01T22:07:41.212Z,15.70
2018-09-01T22:10:09.314Z,15.80
2018-09-01T22:12:37.360Z,15.80
2018-09-01T22:15:05.806Z,15.80
2018-09-01T22:17:33.853Z,15.80
2018-09-01T22:20:01.921Z,15.80
2018-09-01T22:22:29.987Z,15.80
2018-09-01T22:24:58.056Z,15.70
2018-09-01T22:27:26.111Z,15.70
2018-09-01T22:29:54.183Z,15.70
2018-09-01T22:32:22.233Z,15.70
2018-09-01T22:34:50.321Z,15.70
2018-09-01T22:37:18.376Z,15.70
2018-09-01T22:39:46.425Z,15.80
2018-09-01T22:42:14.519Z,15.80
2018-09-01T22:44:42.551Z,15.80
2018-09-01T22:47:14.087Z,15.80
2018-09-01T22:49:42.176Z,15.70
2018-09-01T22:52:10.227Z,15.60
2018-09-01T22:54:38.244Z,15.50
2018-09-01T22:57:06.336Z,15.40
2018-09-01T22:59:34.413Z,15.30
2018-09-01T23:02:02.455Z,15.30
2018-09-01T23:04:30.532Z,15.40
2018-09-01T23:06:58.584Z,15.30
2018-09-01T23:09:26.640Z,15.20
2018-09-01T23:11:54.668Z,15.10
2018-09-01T23:14:22.867Z,15.00
2018-09-01T23:16:50.906Z,14.90
2018-09-01T23:19:18.960Z,14.80
2018-09-01T23:21:47.007Z,14.80
2018-09-01T23:24:15.055Z,14.70
2018-09-01T23:26:43.144Z,14.70
2018-09-01T23:29:11.194Z,14.60
2018-09-01T23:31:39.273Z,14.60
2018-09-01T23:34:07.292Z,14.50
2018-09-01T23:36:35.329Z,14.50
2018-09-01T23:39:04.057Z,14.50
2018-09-01T23:41:32.115Z,14.50
2018-09-01T23:44:00.168Z,14.60
2018-09-01T23:46:28.206Z,14.50
2018-09-01T23:48:56.260Z,14.50
2018-09-01T23:51:24.366Z,14.60
2018-09-01T23:53:52.436Z,14.60
2018-09-01T23:56:20.489Z,14.70
2018-09-01T23:58:48.537Z,14.60
